Aeroporto :
LOGIN :

Iscrizione | Disclaimer

   EN    FR    IT 

 










Sommario :    VFR   VFR Marginale   IFR   IFR Intensivo   IFR Molto Intensivo
Visibilità : 
Base nubi : 
>= 8 km
>= 3000ft
5 / 8 km
1000 / 3000 ft
1500m / 5 km
500 / 1000 ft
800 / 1500m
200 / 500 ft
< 800m
< 200 ft
Simboli :   Temporali  Nebbia  Neve Forte  Precipitazioni Forti  Vento > 20 kt
SIGMETs :   Varie  Temporali  Ghiacco  Turbolenza  Onda orograficha  Ceneri Vulcaniche






- Altitudine del aeroporto : 1989 ft
- Codice IATA : KLV


LKKV - Karlovy Vary

ULTIMO METAR :
  • 241030Z 25007KT 210V280 9999 FEW020 03/M02 Q1020

METARs OBSOLETI :
  • 241000Z 24006KT 180V280 9999 FEW019 03/M02 Q1021
  • 240930Z 23006KT 190V260 9999 FEW015 02/M02 Q1021
  • 240900Z 25006KT 200V290 9999 SCT015 01/M02 Q1021
  • 240830Z 24006KT 210V280 9999 FEW018 01/M02 Q1021
  • 240811Z 24006KT 210V270 9999 SCT019 01/M02 Q1021 RMK REG QNH 1016
  • 240800Z 24007KT 200V270 9999 BKN019 01/M02 Q1022

TAF TAF LKKV
Valido dal 24 a 06 ore il 25 a 12 ore UTC


240500Z 2406/2512 26008KT 9999 BKN022
BECMG 2412/2414 9999 OVC012
TEMPO 2414/2512 6000 -RA BKN006
TEMPO 2421/2512 23014G30KT
PROB40
TEMPO 2502/2507 3000 -RA BR OVC004



MetMap, La meteo Aeronautica in un colpo d'occhio ! - Copyright ORBIFLY Dicembre 2007 - Disclaimer

ORBIFLY MET'MAP TEAM :

Programmazione e sviluppo : Alexandra Zaïnal
Concezione : Baudouin d'Aumeries
Aiuto per la programmazione : Marc-Olivier Méhu
Supporto tecnico e logistico : Manuel Goepfert
Aiuto per la traduzione : Arnaldo La Scala

Contatto : metmap@orbifly.com




FONTI E CREDITI :

   NOAA